Accueil
METAR-TAF:

METAR-TAF

Aéroports :

Igiugig, Alaska, États-Unis

latitude: 59-19-27N, longitude: 155-54-06W, altitude: 27 m

Observation

Le bulletin a été fait il y a 33 minutes, à 22:56 UTC
Vent 7 kt de sud
Température -19°C
Humidité 84%
Pression 1013 hPa
Visibilité: 16.1 km
Ciel clair

METAR: PAIG 222256Z AUTO 17007KT 10SM CLR M19/M21 A2990 RMK AO2 SLP135 T11891211 FZRANO $

Heure: 14:29 (23:29 UTC)


TAF: absent

Observations et prévisions météorologiques de plus de 4000 aéroports (messages METAR et TAF).

Les stations disponibles sont représentées par des disques jaunes et rouges sur la carte.

Passer la souris dessus pour voir le nom de la station.

Cliquer dessus pour voir les observations et prévisions météorologiques.

Pour changer de carte: cliquez sur les boutons verts avec une croix noire pour zoomer, sur le bouton vert avec un tiret pour effectuer un zoom arrière, ou sur les flèches vertes pour les cartes adjacentes.


METAR-TAF: